sensor_id;sensor_type;location;lat;lon;timestamp;P1;durP1;ratioP1;P2;durP2;ratioP2
20344;SDS011;10330;48.816;9.278;2022-12-01T00:02:18;32.88;;;12.82;;
20344;SDS011;10330;48.816;9.278;2022-12-01T00:04:46;33.33;;;15.43;;
20344;SDS011;10330;48.816;9.278;2022-12-01T00:07:12;35.25;;;14.60;;
20344;SDS011;10330;48.816;9.278;2022-12-01T00:09:39;25.73;;;11.30;;
20344;SDS011;10330;48.816;9.278;2022-12-01T00:12:23;24.70;;;11.05;;
20344;SDS011;10330;48.816;9.278;2022-12-01T00:14:50;31.27;;;11.15;;
20344;SDS011;10330;48.816;9.278;2022-12-01T00:17:19;29.10;;;11.23;;
20344;SDS011;10330;48.816;9.278;2022-12-01T00:19:46;26.48;;;12.05;;
20344;SDS011;10330;48.816;9.278;2022-12-01T00:22:12;29.60;;;12.60;;
20344;SDS011;10330;48.816;9.278;2022-12-01T00:24:38;32.75;;;13.18;;
20344;SDS011;10330;48.816;9.278;2022-12-01T00:27:10;25.58;;;10.70;;
20344;SDS011;10330;48.816;9.278;2022-12-01T00:29:36;26.92;;;11.27;;
20344;SDS011;10330;48.816;9.278;2022-12-01T00:32:02;26.58;;;10.55;;
20344;SDS011;10330;48.816;9.278;2022-12-01T00:34:29;27.73;;;12.07;;
20344;SDS011;10330;48.816;9.278;2022-12-01T00:36:55;28.92;;;12.55;;
20344;SDS011;10330;48.816;9.278;2022-12-01T00:39:21;30.83;;;11.32;;
20344;SDS011;10330;48.816;9.278;2022-12-01T00:41:47;27.05;;;12.27;;
20344;SDS011;10330;48.816;9.278;2022-12-01T00:44:14;29.58;;;12.00;;
20344;SDS011;10330;48.816;9.278;2022-12-01T00:46:40;27.98;;;12.27;;
20344;SDS011;10330;48.816;9.278;2022-12-01T00:49:06;29.38;;;12.35;;
20344;SDS011;10330;48.816;9.278;2022-12-01T00:51:37;30.85;;;12.77;;
20344;SDS011;10330;48.816;9.278;2022-12-01T00:54:03;30.63;;;12.30;;
20344;SDS011;10330;48.816;9.278;2022-12-01T00:56:29;29.42;;;12.95;;
20344;SDS011;10330;48.816;9.278;2022-12-01T00:58:55;30.92;;;12.38;;
20344;SDS011;10330;48.816;9.278;2022-12-01T01:01:21;27.10;;;12.65;;
20344;SDS011;10330;48.816;9.278;2022-12-01T01:03:47;26.98;;;12.10;;
20344;SDS011;10330;48.816;9.278;2022-12-01T01:06:14;38.45;;;13.40;;
20344;SDS011;10330;48.816;9.278;2022-12-01T01:08:41;24.25;;;12.60;;
20344;SDS011;10330;48.816;9.278;2022-12-01T01:11:07;27.25;;;12.23;;
20344;SDS011;10330;48.816;9.278;2022-12-01T01:13:34;25.85;;;11.90;;
20344;SDS011;10330;48.816;9.278;2022-12-01T01:16:02;32.10;;;12.40;;
20344;SDS011;10330;48.816;9.278;2022-12-01T01:18:30;29.33;;;13.52;;
20344;SDS011;10330;48.816;9.278;2022-12-01T01:20:58;26.17;;;10.98;;
20344;SDS011;10330;48.816;9.278;2022-12-01T01:23:26;27.02;;;11.80;;
20344;SDS011;10330;48.816;9.278;2022-12-01T01:25:52;28.40;;;11.50;;
20344;SDS011;10330;48.816;9.278;2022-12-01T01:28:18;26.33;;;12.18;;
20344;SDS011;10330;48.816;9.278;2022-12-01T01:30:45;27.60;;;12.40;;
20344;SDS011;10330;48.816;9.278;2022-12-01T01:33:11;25.67;;;12.40;;
20344;SDS011;10330;48.816;9.278;2022-12-01T01:35:37;28.85;;;11.77;;
20344;SDS011;10330;48.816;9.278;2022-12-01T01:38:03;30.38;;;11.75;;
20344;SDS011;10330;48.816;9.278;2022-12-01T01:40:30;24.52;;;13.00;;
20344;SDS011;10330;48.816;9.278;2022-12-01T01:42:57;24.63;;;12.25;;
20344;SDS011;10330;48.816;9.278;2022-12-01T01:45:24;25.17;;;10.93;;
20344;SDS011;10330;48.816;9.278;2022-12-01T01:47:53;28.42;;;10.73;;
20344;SDS011;10330;48.816;9.278;2022-12-01T01:50:23;22.75;;;10.60;;
20344;SDS011;10330;48.816;9.278;2022-12-01T01:52:55;24.77;;;10.93;;
20344;SDS011;10330;48.816;9.278;2022-12-01T01:55:26;26.60;;;11.60;;
20344;SDS011;10330;48.816;9.278;2022-12-01T01:57:54;24.42;;;11.43;;
20344;SDS011;10330;48.816;9.278;2022-12-01T02:00:20;25.40;;;12.13;;
20344;SDS011;10330;48.816;9.278;2022-12-01T02:02:47;27.02;;;11.85;;
20344;SDS011;10330;48.816;9.278;2022-12-01T02:05:18;25.02;;;11.48;;
20344;SDS011;10330;48.816;9.278;2022-12-01T02:07:45;29.15;;;11.00;;
20344;SDS011;10330;48.816;9.278;2022-12-01T02:10:12;30.00;;;12.30;;
20344;SDS011;10330;48.816;9.278;2022-12-01T02:31:52;23.83;;;11.65;;
20344;SDS011;10330;48.816;9.278;2022-12-01T02:34:28;31.98;;;11.93;;
20344;SDS011;10330;48.816;9.278;2022-12-01T02:37:04;30.38;;;12.13;;
20344;SDS011;10330;48.816;9.278;2022-12-01T02:40:01;27.38;;;11.27;;
20344;SDS011;10330;48.816;9.278;2022-12-01T02:45:18;26.85;;;11.00;;
20344;SDS011;10330;48.816;9.278;2022-12-01T02:47:53;25.33;;;12.27;;
20344;SDS011;10330;48.816;9.278;2022-12-01T02:50:24;26.23;;;11.43;;
20344;SDS011;10330;48.816;9.278;2022-12-01T02:52:51;25.10;;;11.20;;
20344;SDS011;10330;48.816;9.278;2022-12-01T02:55:19;25.88;;;11.57;;
20344;SDS011;10330;48.816;9.278;2022-12-01T02:57:45;26.77;;;12.20;;
20344;SDS011;10330;48.816;9.278;2022-12-01T03:00:11;28.63;;;12.02;;
20344;SDS011;10330;48.816;9.278;2022-12-01T03:02:42;21.13;;;10.10;;
20344;SDS011;10330;48.816;9.278;2022-12-01T03:05:21;30.23;;;11.20;;
20344;SDS011;10330;48.816;9.278;2022-12-01T03:08:10;27.48;;;11.63;;
20344;SDS011;10330;48.816;9.278;2022-12-01T03:10:55;23.13;;;11.50;;
20344;SDS011;10330;48.816;9.278;2022-12-01T03:13:31;28.55;;;11.15;;
20344;SDS011;10330;48.816;9.278;2022-12-01T03:16:11;25.17;;;10.48;;
20344;SDS011;10330;48.816;9.278;2022-12-01T03:18:46;28.65;;;13.13;;
20344;SDS011;10330;48.816;9.278;2022-12-01T03:23:52;27.83;;;12.52;;
20344;SDS011;10330;48.816;9.278;2022-12-01T03:26:28;21.67;;;11.05;;
20344;SDS011;10330;48.816;9.278;2022-12-01T03:28:58;19.92;;;10.23;;
20344;SDS011;10330;48.816;9.278;2022-12-01T03:31:33;25.20;;;11.13;;
20344;SDS011;10330;48.816;9.278;2022-12-01T03:34:06;26.85;;;11.30;;
20344;SDS011;10330;48.816;9.278;2022-12-01T03:36:45;26.25;;;11.45;;
20344;SDS011;10330;48.816;9.278;2022-12-01T03:39:18;23.60;;;11.27;;
20344;SDS011;10330;48.816;9.278;2022-12-01T03:42:24;26.17;;;11.20;;
20344;SDS011;10330;48.816;9.278;2022-12-01T03:45:04;23.00;;;10.75;;
20344;SDS011;10330;48.816;9.278;2022-12-01T03:47:33;27.70;;;11.13;;
20344;SDS011;10330;48.816;9.278;2022-12-01T03:50:05;29.20;;;11.70;;
20344;SDS011;10330;48.816;9.278;2022-12-01T03:52:39;23.85;;;12.00;;
20344;SDS011;10330;48.816;9.278;2022-12-01T03:55:27;29.25;;;12.73;;
20344;SDS011;10330;48.816;9.278;2022-12-01T03:58:06;31.05;;;12.63;;
20344;SDS011;10330;48.816;9.278;2022-12-01T04:00:43;23.45;;;10.55;;
20344;SDS011;10330;48.816;9.278;2022-12-01T04:03:18;25.55;;;11.93;;
20344;SDS011;10330;48.816;9.278;2022-12-01T04:08:16;25.30;;;12.07;;
20344;SDS011;10330;48.816;9.278;2022-12-01T04:10:43;25.70;;;12.63;;
20344;SDS011;10330;48.816;9.278;2022-12-01T04:13:09;28.45;;;12.20;;
20344;SDS011;10330;48.816;9.278;2022-12-01T04:15:48;27.75;;;12.48;;
20344;SDS011;10330;48.816;9.278;2022-12-01T04:18:15;22.65;;;11.23;;
20344;SDS011;10330;48.816;9.278;2022-12-01T04:20:42;30.02;;;12.52;;
20344;SDS011;10330;48.816;9.278;2022-12-01T04:23:09;26.10;;;11.73;;
20344;SDS011;10330;48.816;9.278;2022-12-01T04:25:35;23.35;;;11.32;;
20344;SDS011;10330;48.816;9.278;2022-12-01T04:28:02;29.63;;;12.15;;
20344;SDS011;10330;48.816;9.278;2022-12-01T04:30:28;29.63;;;11.93;;
20344;SDS011;10330;48.816;9.278;2022-12-01T04:32:54;26.60;;;12.48;;
20344;SDS011;10330;48.816;9.278;2022-12-01T04:35:22;30.80;;;12.32;;
20344;SDS011;10330;48.816;9.278;2022-12-01T04:37:48;27.05;;;12.82;;
20344;SDS011;10330;48.816;9.278;2022-12-01T04:40:15;30.90;;;12.50;;
20344;SDS011;10330;48.816;9.278;2022-12-01T04:42:43;26.73;;;12.23;;
20344;SDS011;10330;48.816;9.278;2022-12-01T04:45:09;26.67;;;12.57;;
20344;SDS011;10330;48.816;9.278;2022-12-01T04:47:35;28.15;;;12.10;;
20344;SDS011;10330;48.816;9.278;2022-12-01T04:50:02;35.50;;;12.75;;
20344;SDS011;10330;48.816;9.278;2022-12-01T04:52:28;29.35;;;12.73;;
20344;SDS011;10330;48.816;9.278;2022-12-01T04:54:54;35.05;;;13.43;;
20344;SDS011;10330;48.816;9.278;2022-12-01T04:57:20;33.67;;;12.82;;
20344;SDS011;10330;48.816;9.278;2022-12-01T04:59:47;29.00;;;13.13;;
20344;SDS011;10330;48.816;9.278;2022-12-01T05:02:13;35.28;;;13.68;;
20344;SDS011;10330;48.816;9.278;2022-12-01T05:04:39;31.98;;;12.57;;
20344;SDS011;10330;48.816;9.278;2022-12-01T05:07:06;31.50;;;13.82;;
20344;SDS011;10330;48.816;9.278;2022-12-01T05:09:32;24.20;;;12.05;;
20344;SDS011;10330;48.816;9.278;2022-12-01T05:11:58;28.83;;;12.07;;
20344;SDS011;10330;48.816;9.278;2022-12-01T05:14:25;30.83;;;13.90;;
20344;SDS011;10330;48.816;9.278;2022-12-01T05:16:51;29.40;;;13.48;;
20344;SDS011;10330;48.816;9.278;2022-12-01T05:19:18;29.67;;;13.27;;
20344;SDS011;10330;48.816;9.278;2022-12-01T05:22:03;28.40;;;11.75;;
20344;SDS011;10330;48.816;9.278;2022-12-01T05:24:29;38.30;;;14.52;;
20344;SDS011;10330;48.816;9.278;2022-12-01T05:26:55;27.65;;;12.57;;
20344;SDS011;10330;48.816;9.278;2022-12-01T05:29:22;33.35;;;13.20;;
20344;SDS011;10330;48.816;9.278;2022-12-01T05:31:48;30.55;;;13.98;;
20344;SDS011;10330;48.816;9.278;2022-12-01T05:34:14;29.83;;;13.60;;
20344;SDS011;10330;48.816;9.278;2022-12-01T05:36:40;30.92;;;14.05;;
20344;SDS011;10330;48.816;9.278;2022-12-01T05:39:06;42.40;;;16.95;;
20344;SDS011;10330;48.816;9.278;2022-12-01T05:41:33;30.92;;;13.35;;
20344;SDS011;10330;48.816;9.278;2022-12-01T05:43:59;35.10;;;13.82;;
20344;SDS011;10330;48.816;9.278;2022-12-01T05:46:25;33.97;;;13.77;;
20344;SDS011;10330;48.816;9.278;2022-12-01T05:48:51;31.27;;;13.48;;
20344;SDS011;10330;48.816;9.278;2022-12-01T05:51:18;32.15;;;14.40;;
20344;SDS011;10330;48.816;9.278;2022-12-01T05:53:44;28.45;;;12.30;;
20344;SDS011;10330;48.816;9.278;2022-12-01T05:56:10;31.08;;;13.68;;
20344;SDS011;10330;48.816;9.278;2022-12-01T05:58:36;30.88;;;13.38;;
20344;SDS011;10330;48.816;9.278;2022-12-01T06:01:03;31.90;;;13.85;;
20344;SDS011;10330;48.816;9.278;2022-12-01T06:03:29;34.65;;;14.77;;
20344;SDS011;10330;48.816;9.278;2022-12-01T06:05:55;28.60;;;12.90;;
20344;SDS011;10330;48.816;9.278;2022-12-01T06:08:21;32.45;;;13.77;;
20344;SDS011;10330;48.816;9.278;2022-12-01T06:10:48;27.00;;;12.60;;
20344;SDS011;10330;48.816;9.278;2022-12-01T06:13:14;30.27;;;13.38;;
20344;SDS011;10330;48.816;9.278;2022-12-01T06:15:40;33.75;;;14.40;;
20344;SDS011;10330;48.816;9.278;2022-12-01T06:18:07;29.20;;;13.20;;
20344;SDS011;10330;48.816;9.278;2022-12-01T06:20:33;34.38;;;15.23;;
20344;SDS011;10330;48.816;9.278;2022-12-01T06:22:59;34.72;;;14.23;;
20344;SDS011;10330;48.816;9.278;2022-12-01T06:25:25;34.28;;;13.32;;
20344;SDS011;10330;48.816;9.278;2022-12-01T06:27:55;31.75;;;13.73;;
20344;SDS011;10330;48.816;9.278;2022-12-01T06:30:23;31.25;;;14.48;;
20344;SDS011;10330;48.816;9.278;2022-12-01T06:32:50;37.03;;;14.32;;
20344;SDS011;10330;48.816;9.278;2022-12-01T06:35:16;31.90;;;13.48;;
20344;SDS011;10330;48.816;9.278;2022-12-01T06:37:45;26.90;;;13.55;;
20344;SDS011;10330;48.816;9.278;2022-12-01T06:40:11;41.00;;;13.93;;
20344;SDS011;10330;48.816;9.278;2022-12-01T06:42:38;33.47;;;13.98;;
20344;SDS011;10330;48.816;9.278;2022-12-01T06:45:04;29.83;;;12.88;;
20344;SDS011;10330;48.816;9.278;2022-12-01T06:47:30;33.97;;;14.65;;
20344;SDS011;10330;48.816;9.278;2022-12-01T06:49:57;33.50;;;14.70;;
20344;SDS011;10330;48.816;9.278;2022-12-01T06:52:23;35.55;;;15.95;;
20344;SDS011;10330;48.816;9.278;2022-12-01T06:54:49;39.47;;;15.10;;
20344;SDS011;10330;48.816;9.278;2022-12-01T06:57:15;30.63;;;13.05;;
20344;SDS011;10330;48.816;9.278;2022-12-01T06:59:41;30.00;;;13.07;;
20344;SDS011;10330;48.816;9.278;2022-12-01T07:02:09;33.53;;;13.43;;
20344;SDS011;10330;48.816;9.278;2022-12-01T07:04:36;35.50;;;13.68;;
20344;SDS011;10330;48.816;9.278;2022-12-01T07:07:03;32.42;;;13.68;;
20344;SDS011;10330;48.816;9.278;2022-12-01T07:09:32;33.65;;;13.98;;
20344;SDS011;10330;48.816;9.278;2022-12-01T07:11:58;40.33;;;15.38;;
20344;SDS011;10330;48.816;9.278;2022-12-01T07:14:25;37.70;;;14.90;;
20344;SDS011;10330;48.816;9.278;2022-12-01T07:16:51;33.47;;;13.63;;
20344;SDS011;10330;48.816;9.278;2022-12-01T07:19:18;48.53;;;19.35;;
20344;SDS011;10330;48.816;9.278;2022-12-01T07:21:44;39.33;;;17.75;;
20344;SDS011;10330;48.816;9.278;2022-12-01T07:24:10;40.08;;;17.38;;
20344;SDS011;10330;48.816;9.278;2022-12-01T07:26:37;28.20;;;13.98;;
20344;SDS011;10330;48.816;9.278;2022-12-01T07:29:05;45.67;;;18.60;;
20344;SDS011;10330;48.816;9.278;2022-12-01T07:31:33;28.73;;;14.18;;
20344;SDS011;10330;48.816;9.278;2022-12-01T07:33:59;53.00;;;23.88;;
20344;SDS011;10330;48.816;9.278;2022-12-01T07:36:25;41.58;;;16.85;;
20344;SDS011;10330;48.816;9.278;2022-12-01T07:38:52;32.58;;;13.60;;
20344;SDS011;10330;48.816;9.278;2022-12-01T07:41:18;32.05;;;14.70;;
20344;SDS011;10330;48.816;9.278;2022-12-01T07:43:46;31.35;;;15.35;;
20344;SDS011;10330;48.816;9.278;2022-12-01T07:46:13;39.70;;;16.75;;
20344;SDS011;10330;48.816;9.278;2022-12-01T07:48:41;28.02;;;12.73;;
20344;SDS011;10330;48.816;9.278;2022-12-01T07:51:08;26.73;;;12.85;;
20344;SDS011;10330;48.816;9.278;2022-12-01T07:53:36;34.55;;;12.88;;
20344;SDS011;10330;48.816;9.278;2022-12-01T07:56:03;25.92;;;12.10;;
20344;SDS011;10330;48.816;9.278;2022-12-01T07:58:30;29.25;;;12.45;;
20344;SDS011;10330;48.816;9.278;2022-12-01T08:00:57;32.60;;;13.90;;
20344;SDS011;10330;48.816;9.278;2022-12-01T08:03:27;29.25;;;12.98;;
20344;SDS011;10330;48.816;9.278;2022-12-01T08:05:56;24.58;;;12.50;;
20344;SDS011;10330;48.816;9.278;2022-12-01T08:08:24;31.90;;;13.50;;
20344;SDS011;10330;48.816;9.278;2022-12-01T08:10:50;29.27;;;13.90;;
20344;SDS011;10330;48.816;9.278;2022-12-01T08:13:18;33.35;;;13.95;;
20344;SDS011;10330;48.816;9.278;2022-12-01T08:22:59;32.38;;;13.07;;
20344;SDS011;10330;48.816;9.278;2022-12-01T08:25:26;32.70;;;13.40;;
20344;SDS011;10330;48.816;9.278;2022-12-01T08:27:53;27.20;;;13.43;;
20344;SDS011;10330;48.816;9.278;2022-12-01T08:30:20;26.13;;;12.50;;
20344;SDS011;10330;48.816;9.278;2022-12-01T08:32:47;25.27;;;11.77;;
20344;SDS011;10330;48.816;9.278;2022-12-01T08:35:13;28.15;;;12.43;;
20344;SDS011;10330;48.816;9.278;2022-12-01T08:37:40;26.52;;;11.98;;
20344;SDS011;10330;48.816;9.278;2022-12-01T08:40:08;32.78;;;13.70;;
20344;SDS011;10330;48.816;9.278;2022-12-01T08:42:35;24.52;;;12.15;;
20344;SDS011;10330;48.816;9.278;2022-12-01T08:45:01;24.40;;;12.38;;
20344;SDS011;10330;48.816;9.278;2022-12-01T08:47:27;26.13;;;11.77;;
20344;SDS011;10330;48.816;9.278;2022-12-01T08:49:53;27.67;;;12.38;;
20344;SDS011;10330;48.816;9.278;2022-12-01T08:52:20;31.80;;;12.88;;
20344;SDS011;10330;48.816;9.278;2022-12-01T08:54:46;27.90;;;12.57;;
20344;SDS011;10330;48.816;9.278;2022-12-01T08:57:12;28.40;;;13.05;;
20344;SDS011;10330;48.816;9.278;2022-12-01T08:59:39;28.70;;;12.52;;
20344;SDS011;10330;48.816;9.278;2022-12-01T09:02:05;29.65;;;13.38;;
20344;SDS011;10330;48.816;9.278;2022-12-01T09:04:32;27.42;;;12.60;;
20344;SDS011;10330;48.816;9.278;2022-12-01T09:09:29;28.83;;;12.85;;
20344;SDS011;10330;48.816;9.278;2022-12-01T09:11:55;30.58;;;12.75;;
20344;SDS011;10330;48.816;9.278;2022-12-01T09:14:22;28.52;;;12.50;;
20344;SDS011;10330;48.816;9.278;2022-12-01T09:16:49;26.35;;;12.02;;
20344;SDS011;10330;48.816;9.278;2022-12-01T09:19:16;23.42;;;11.43;;
20344;SDS011;10330;48.816;9.278;2022-12-01T09:21:46;30.73;;;12.50;;
20344;SDS011;10330;48.816;9.278;2022-12-01T09:24:13;29.15;;;12.40;;
20344;SDS011;10330;48.816;9.278;2022-12-01T09:26:40;29.17;;;13.30;;
20344;SDS011;10330;48.816;9.278;2022-12-01T09:29:08;28.50;;;11.20;;
20344;SDS011;10330;48.816;9.278;2022-12-01T09:31:37;27.27;;;12.43;;
20344;SDS011;10330;48.816;9.278;2022-12-01T09:34:04;27.70;;;13.07;;
20344;SDS011;10330;48.816;9.278;2022-12-01T09:36:35;31.05;;;12.75;;
20344;SDS011;10330;48.816;9.278;2022-12-01T09:39:03;26.88;;;12.02;;
20344;SDS011;10330;48.816;9.278;2022-12-01T09:52:47;31.88;;;13.38;;
20344;SDS011;10330;48.816;9.278;2022-12-01T09:55:23;24.92;;;12.45;;
20344;SDS011;10330;48.816;9.278;2022-12-01T09:57:52;29.08;;;13.57;;
20344;SDS011;10330;48.816;9.278;2022-12-01T10:00:21;30.23;;;12.38;;
20344;SDS011;10330;48.816;9.278;2022-12-01T10:03:05;29.98;;;12.30;;
20344;SDS011;10330;48.816;9.278;2022-12-01T10:05:57;32.47;;;12.90;;
20344;SDS011;10330;48.816;9.278;2022-12-01T10:08:30;26.02;;;12.27;;
20344;SDS011;10330;48.816;9.278;2022-12-01T10:11:05;28.10;;;12.48;;
20344;SDS011;10330;48.816;9.278;2022-12-01T10:13:41;24.90;;;11.65;;
20344;SDS011;10330;48.816;9.278;2022-12-01T10:16:09;28.05;;;13.02;;
20344;SDS011;10330;48.816;9.278;2022-12-01T10:18:53;28.13;;;11.90;;
20344;SDS011;10330;48.816;9.278;2022-12-01T10:27:15;26.88;;;12.45;;
20344;SDS011;10330;48.816;9.278;2022-12-01T10:32:44;24.33;;;11.38;;
20344;SDS011;10330;48.816;9.278;2022-12-01T10:35:16;26.60;;;12.23;;
20344;SDS011;10330;48.816;9.278;2022-12-01T10:37:47;27.77;;;13.05;;
20344;SDS011;10330;48.816;9.278;2022-12-01T10:44:21;30.10;;;13.20;;
20344;SDS011;10330;48.816;9.278;2022-12-01T10:49:49;22.75;;;10.93;;
20344;SDS011;10330;48.816;9.278;2022-12-01T10:52:49;23.83;;;12.75;;
20344;SDS011;10330;48.816;9.278;2022-12-01T10:58:05;30.98;;;12.43;;
20344;SDS011;10330;48.816;9.278;2022-12-01T11:01:57;25.33;;;11.57;;
20344;SDS011;10330;48.816;9.278;2022-12-01T11:09:55;28.52;;;12.85;;
20344;SDS011;10330;48.816;9.278;2022-12-01T11:12:41;26.83;;;12.13;;
20344;SDS011;10330;48.816;9.278;2022-12-01T11:15:30;24.75;;;11.93;;
20344;SDS011;10330;48.816;9.278;2022-12-01T11:17:59;26.98;;;12.63;;
20344;SDS011;10330;48.816;9.278;2022-12-01T11:20:37;27.35;;;13.02;;
20344;SDS011;10330;48.816;9.278;2022-12-01T11:28:49;25.23;;;13.00;;
20344;SDS011;10330;48.816;9.278;2022-12-01T11:31:18;30.40;;;12.40;;
20344;SDS011;10330;48.816;9.278;2022-12-01T11:33:51;23.98;;;12.25;;
20344;SDS011;10330;48.816;9.278;2022-12-01T11:37:05;27.70;;;12.70;;
20344;SDS011;10330;48.816;9.278;2022-12-01T11:39:22;27.30;;;12.90;;
20344;SDS011;10330;48.816;9.278;2022-12-01T11:42:14;27.08;;;11.90;;
20344;SDS011;10330;48.816;9.278;2022-12-01T11:45:12;27.10;;;12.65;;
20344;SDS011;10330;48.816;9.278;2022-12-01T12:26:25;31.33;;;12.95;;
20344;SDS011;10330;48.816;9.278;2022-12-01T12:31:51;35.15;;;13.15;;
20344;SDS011;10330;48.816;9.278;2022-12-01T12:34:37;27.58;;;12.30;;
20344;SDS011;10330;48.816;9.278;2022-12-01T12:42:42;21.98;;;11.20;;
20344;SDS011;10330;48.816;9.278;2022-12-01T12:48:01;27.13;;;12.27;;
20344;SDS011;10330;48.816;9.278;2022-12-01T12:53:13;25.27;;;11.07;;
20344;SDS011;10330;48.816;9.278;2022-12-01T12:55:47;26.20;;;11.90;;
20344;SDS011;10330;48.816;9.278;2022-12-01T13:01:44;26.88;;;11.65;;
20344;SDS011;10330;48.816;9.278;2022-12-01T13:04:19;25.08;;;12.15;;
20344;SDS011;10330;48.816;9.278;2022-12-01T13:06:55;26.48;;;11.60;;
20344;SDS011;10330;48.816;9.278;2022-12-01T13:09:34;25.52;;;12.45;;
20344;SDS011;10330;48.816;9.278;2022-12-01T13:12:13;24.08;;;10.95;;
20344;SDS011;10330;48.816;9.278;2022-12-01T13:14:47;27.65;;;10.80;;
20344;SDS011;10330;48.816;9.278;2022-12-01T13:17:21;21.42;;;10.43;;
20344;SDS011;10330;48.816;9.278;2022-12-01T13:19:52;24.67;;;11.93;;
20344;SDS011;10330;48.816;9.278;2022-12-01T13:22:20;26.45;;;11.13;;
20344;SDS011;10330;48.816;9.278;2022-12-01T13:24:49;23.08;;;10.68;;
20344;SDS011;10330;48.816;9.278;2022-12-01T13:27:18;21.73;;;9.80;;
20344;SDS011;10330;48.816;9.278;2022-12-01T13:29:51;23.67;;;10.27;;
20344;SDS011;10330;48.816;9.278;2022-12-01T13:32:26;26.75;;;11.65;;
20344;SDS011;10330;48.816;9.278;2022-12-01T13:34:54;29.38;;;11.07;;
20344;SDS011;10330;48.816;9.278;2022-12-01T13:37:39;25.42;;;11.05;;
20344;SDS011;10330;48.816;9.278;2022-12-01T13:40:18;21.40;;;11.05;;
20344;SDS011;10330;48.816;9.278;2022-12-01T13:42:59;23.70;;;11.07;;
20344;SDS011;10330;48.816;9.278;2022-12-01T13:45:30;23.25;;;11.00;;
20344;SDS011;10330;48.816;9.278;2022-12-01T13:48:00;28.73;;;11.80;;
20344;SDS011;10330;48.816;9.278;2022-12-01T16:07:03;28.10;;;12.70;;
20344;SDS011;10330;48.816;9.278;2022-12-01T16:09:39;38.28;;;12.80;;
20344;SDS011;10330;48.816;9.278;2022-12-01T16:20:34;27.23;;;12.10;;
20344;SDS011;10330;48.816;9.278;2022-12-01T16:23:33;37.30;;;13.13;;
20344;SDS011;10330;48.816;9.278;2022-12-01T16:26:05;32.72;;;13.63;;
20344;SDS011;10330;48.816;9.278;2022-12-01T16:28:42;36.88;;;13.18;;
20344;SDS011;10330;48.816;9.278;2022-12-01T16:31:25;24.85;;;11.32;;
20344;SDS011;10330;48.816;9.278;2022-12-01T16:34:01;29.17;;;11.30;;
20344;SDS011;10330;48.816;9.278;2022-12-01T16:37:15;22.58;;;10.93;;
20344;SDS011;10330;48.816;9.278;2022-12-01T16:39:56;29.08;;;13.15;;
20344;SDS011;10330;48.816;9.278;2022-12-01T16:45:38;29.75;;;12.73;;
20344;SDS011;10330;48.816;9.278;2022-12-01T16:48:04;25.52;;;12.68;;
20344;SDS011;10330;48.816;9.278;2022-12-01T16:54:51;26.08;;;11.55;;
20344;SDS011;10330;48.816;9.278;2022-12-01T16:57:25;25.25;;;11.65;;
20344;SDS011;10330;48.816;9.278;2022-12-01T17:03:13;32.38;;;12.43;;
20344;SDS011;10330;48.816;9.278;2022-12-01T17:06:55;28.80;;;12.80;;
20344;SDS011;10330;48.816;9.278;2022-12-01T17:09:27;32.58;;;13.13;;
20344;SDS011;10330;48.816;9.278;2022-12-01T17:12:13;26.35;;;12.77;;
20344;SDS011;10330;48.816;9.278;2022-12-01T17:15:06;30.27;;;12.93;;
20344;SDS011;10330;48.816;9.278;2022-12-01T17:17:35;30.33;;;13.73;;
20344;SDS011;10330;48.816;9.278;2022-12-01T17:23:14;31.52;;;12.93;;
20344;SDS011;10330;48.816;9.278;2022-12-01T17:25:59;28.13;;;13.45;;
20344;SDS011;10330;48.816;9.278;2022-12-01T17:28:25;27.65;;;12.35;;
20344;SDS011;10330;48.816;9.278;2022-12-01T18:00:27;32.03;;;14.15;;
20344;SDS011;10330;48.816;9.278;2022-12-01T18:02:54;34.72;;;13.90;;
20344;SDS011;10330;48.816;9.278;2022-12-01T18:05:20;29.95;;;13.32;;
20344;SDS011;10330;48.816;9.278;2022-12-01T18:07:47;27.58;;;14.13;;
20344;SDS011;10330;48.816;9.278;2022-12-01T18:10:13;26.08;;;12.88;;
20344;SDS011;10330;48.816;9.278;2022-12-01T18:12:39;27.33;;;12.80;;
20344;SDS011;10330;48.816;9.278;2022-12-01T18:15:06;45.03;;;16.80;;
20344;SDS011;10330;48.816;9.278;2022-12-01T18:17:33;35.47;;;14.48;;
20344;SDS011;10330;48.816;9.278;2022-12-01T18:19:59;30.88;;;13.25;;
20344;SDS011;10330;48.816;9.278;2022-12-01T18:22:28;34.60;;;16.23;;
20344;SDS011;10330;48.816;9.278;2022-12-01T18:24:54;42.85;;;17.33;;
20344;SDS011;10330;48.816;9.278;2022-12-01T18:27:21;39.28;;;16.05;;
20344;SDS011;10330;48.816;9.278;2022-12-01T18:29:47;35.13;;;13.70;;
20344;SDS011;10330;48.816;9.278;2022-12-01T18:32:14;33.97;;;14.60;;
20344;SDS011;10330;48.816;9.278;2022-12-01T18:34:41;36.55;;;13.25;;
20344;SDS011;10330;48.816;9.278;2022-12-01T18:37:07;31.42;;;14.15;;
20344;SDS011;10330;48.816;9.278;2022-12-01T18:39:33;32.55;;;14.48;;
20344;SDS011;10330;48.816;9.278;2022-12-01T18:42:00;39.88;;;16.85;;
20344;SDS011;10330;48.816;9.278;2022-12-01T18:44:36;47.17;;;17.75;;
20344;SDS011;10330;48.816;9.278;2022-12-01T18:47:03;32.10;;;13.70;;
20344;SDS011;10330;48.816;9.278;2022-12-01T18:49:31;28.20;;;12.27;;
20344;SDS011;10330;48.816;9.278;2022-12-01T18:52:00;30.30;;;13.30;;
20344;SDS011;10330;48.816;9.278;2022-12-01T18:54:28;30.23;;;13.55;;
20344;SDS011;10330;48.816;9.278;2022-12-01T18:56:54;32.90;;;13.38;;
20344;SDS011;10330;48.816;9.278;2022-12-01T18:59:23;28.35;;;13.35;;
20344;SDS011;10330;48.816;9.278;2022-12-01T19:01:51;30.35;;;12.43;;
20344;SDS011;10330;48.816;9.278;2022-12-01T19:04:17;30.15;;;13.38;;
20344;SDS011;10330;48.816;9.278;2022-12-01T19:06:44;30.73;;;13.27;;
20344;SDS011;10330;48.816;9.278;2022-12-01T19:09:12;30.85;;;12.32;;
20344;SDS011;10330;48.816;9.278;2022-12-01T19:11:40;33.42;;;12.73;;
20344;SDS011;10330;48.816;9.278;2022-12-01T19:14:12;31.10;;;13.52;;
20344;SDS011;10330;48.816;9.278;2022-12-01T19:16:41;30.15;;;13.45;;
20344;SDS011;10330;48.816;9.278;2022-12-01T19:19:10;37.67;;;14.25;;
20344;SDS011;10330;48.816;9.278;2022-12-01T19:21:37;27.70;;;13.20;;
20344;SDS011;10330;48.816;9.278;2022-12-01T19:24:03;26.73;;;13.30;;
20344;SDS011;10330;48.816;9.278;2022-12-01T19:26:29;42.47;;;17.33;;
20344;SDS011;10330;48.816;9.278;2022-12-01T19:28:56;40.97;;;16.48;;
20344;SDS011;10330;48.816;9.278;2022-12-01T19:31:23;42.28;;;16.60;;
20344;SDS011;10330;48.816;9.278;2022-12-01T19:33:51;45.40;;;16.73;;
20344;SDS011;10330;48.816;9.278;2022-12-01T19:36:20;35.63;;;15.00;;
20344;SDS011;10330;48.816;9.278;2022-12-01T19:38:48;28.88;;;13.38;;
20344;SDS011;10330;48.816;9.278;2022-12-01T19:41:15;42.30;;;15.68;;
20344;SDS011;10330;48.816;9.278;2022-12-01T19:43:45;41.05;;;16.00;;
20344;SDS011;10330;48.816;9.278;2022-12-01T19:46:13;41.75;;;17.63;;
20344;SDS011;10330;48.816;9.278;2022-12-01T19:48:43;32.13;;;14.02;;
20344;SDS011;10330;48.816;9.278;2022-12-01T19:51:21;44.63;;;19.05;;
20344;SDS011;10330;48.816;9.278;2022-12-01T19:53:49;36.20;;;15.55;;
20344;SDS011;10330;48.816;9.278;2022-12-01T19:56:16;36.28;;;16.77;;
20344;SDS011;10330;48.816;9.278;2022-12-01T19:58:43;39.83;;;18.27;;
20344;SDS011;10330;48.816;9.278;2022-12-01T20:01:10;44.28;;;21.15;;
20344;SDS011;10330;48.816;9.278;2022-12-01T20:03:38;39.95;;;20.10;;